createdAt,value
2019-03-30T00:02:20.408Z,53.18
2019-03-30T00:04:53.593Z,53.43
2019-03-30T00:07:26.902Z,53.71
2019-03-30T00:09:59.977Z,53.96
2019-03-30T00:12:33.468Z,54.23
2019-03-30T00:15:07.656Z,54.19
2019-03-30T00:17:41.085Z,54.32
2019-03-30T00:20:13.874Z,54.73
2019-03-30T00:22:47.298Z,54.93
2019-03-30T00:25:20.383Z,55.22
2019-03-30T00:27:53.273Z,55.18
2019-03-30T00:30:26.557Z,55.57
2019-03-30T00:32:59.652Z,55.79
2019-03-30T00:35:31.198Z,55.84
2019-03-30T00:38:04.293Z,55.92
2019-03-30T00:40:37.525Z,56.38
2019-03-30T00:43:08.858Z,56.88
2019-03-30T00:45:41.769Z,56.83
2019-03-30T00:48:14.886Z,56.70
2019-03-30T00:50:48.216Z,56.62
2019-03-30T00:53:21.398Z,56.15
2019-03-30T00:55:54.724Z,56.05
2019-03-30T00:58:27.699Z,56.08
2019-03-30T01:01:00.311Z,55.85
2019-03-30T01:03:33.414Z,55.92
2019-03-30T01:06:06.776Z,55.80
2019-03-30T01:08:39.850Z,55.54
2019-03-30T01:11:13.237Z,55.66
2019-03-30T01:13:46.332Z,55.55
2019-03-30T01:16:19.485Z,55.58
2019-03-30T01:18:51.474Z,55.58
2019-03-30T01:21:24.604Z,55.52
2019-03-30T01:23:57.549Z,55.56
2019-03-30T01:26:29.816Z,55.74
2019-03-30T01:29:03.747Z,55.66
2019-03-30T01:31:37.701Z,55.30
2019-03-30T01:34:11.039Z,54.75
2019-03-30T01:36:45.395Z,54.94
2019-03-30T01:39:17.167Z,54.77
2019-03-30T01:41:50.016Z,54.90
2019-03-30T01:44:23.308Z,54.87
2019-03-30T01:46:54.670Z,54.79
2019-03-30T01:49:27.754Z,54.63
2019-03-30T01:51:59.524Z,54.63
2019-03-30T01:54:32.597Z,54.74
2019-03-30T01:57:06.807Z,54.73
2019-03-30T01:59:38.049Z,54.51
2019-03-30T02:02:11.157Z,54.22
2019-03-30T02:04:42.767Z,54.14
2019-03-30T02:07:15.845Z,54.04
2019-03-30T02:09:47.524Z,54.24
2019-03-30T02:12:20.708Z,54.01
2019-03-30T02:14:52.130Z,53.97
2019-03-30T02:17:25.018Z,53.94
2019-03-30T02:19:58.487Z,53.88
2019-03-30T02:22:31.743Z,53.83
2019-03-30T02:25:04.840Z,53.64
2019-03-30T02:27:36.311Z,53.65
2019-03-30T02:30:09.180Z,53.67
2019-03-30T02:32:42.767Z,53.56
2019-03-30T02:35:15.687Z,53.50
2019-03-30T02:37:48.968Z,53.42
2019-03-30T02:40:21.504Z,53.37
2019-03-30T02:42:55.834Z,53.43
2019-03-30T02:45:27.450Z,53.38
2019-03-30T02:48:00.492Z,53.25
2019-03-30T02:50:48.615Z,53.41
2019-03-30T02:53:09.145Z,53.26
2019-03-30T02:55:41.923Z,53.36
2019-03-30T02:58:15.047Z,53.52
2019-03-30T03:00:48.429Z,53.77
2019-03-30T03:03:21.501Z,53.78
2019-03-30T03:05:54.615Z,53.87
2019-03-30T03:08:26.135Z,54.06
2019-03-30T03:10:59.207Z,54.39
2019-03-30T03:13:30.793Z,54.55
2019-03-30T03:16:04.010Z,54.76
2019-03-30T03:18:37.099Z,54.96
2019-03-30T03:21:10.196Z,55.42
2019-03-30T03:23:43.545Z,55.22
2019-03-30T03:26:16.501Z,55.56
2019-03-30T03:28:49.811Z,55.60
2019-03-30T03:31:21.301Z,55.89
2019-03-30T03:33:54.572Z,55.85
2019-03-30T03:36:27.632Z,55.97
2019-03-30T03:39:00.475Z,55.89
2019-03-30T03:41:35.305Z,55.69
2019-03-30T03:44:06.640Z,55.40
2019-03-30T03:46:39.773Z,55.33
2019-03-30T03:49:13.232Z,55.69
2019-03-30T03:51:46.571Z,55.77
2019-03-30T03:54:20.306Z,56.13
2019-03-30T03:56:53.667Z,56.42
2019-03-30T03:59:28.443Z,56.60
2019-03-30T04:02:05.532Z,56.86
2019-03-30T04:04:40.374Z,57.12
2019-03-30T04:07:14.545Z,57.57
2019-03-30T04:09:50.084Z,57.50
2019-03-30T04:12:24.981Z,57.79
2019-03-30T04:14:59.605Z,57.54
2019-03-30T04:17:32.785Z,57.12
2019-03-30T04:20:06.243Z,56.68
2019-03-30T04:22:39.388Z,56.29
2019-03-30T04:25:12.518Z,55.75
2019-03-30T04:27:45.713Z,55.65
2019-03-30T04:30:17.158Z,55.36
2019-03-30T04:33:01.169Z,55.86
2019-03-30T04:35:47.867Z,55.32
2019-03-30T04:38:21.169Z,55.03
2019-03-30T04:40:55.118Z,54.83
2019-03-30T04:43:28.453Z,53.93
2019-03-30T04:46:01.396Z,54.58
2019-03-30T04:48:34.741Z,54.10
2019-03-30T04:51:08.109Z,53.71
2019-03-30T04:53:41.465Z,54.13
2019-03-30T04:56:14.663Z,53.83
2019-03-30T04:58:47.977Z,53.82
2019-03-30T05:01:21.364Z,53.47
2019-03-30T05:03:52.563Z,53.01
2019-03-30T05:06:26.314Z,52.85
2019-03-30T05:08:59.324Z,52.54
2019-03-30T05:11:32.716Z,52.33
2019-03-30T05:14:05.781Z,52.36
2019-03-30T05:16:38.732Z,52.28
2019-03-30T05:19:11.672Z,52.37
2019-03-30T05:21:44.993Z,52.44
2019-03-30T05:24:18.297Z,52.31
2019-03-30T05:26:49.600Z,49.81
2019-03-30T05:29:22.747Z,47.61
2019-03-30T05:31:56.675Z,45.89
2019-03-30T05:34:29.965Z,43.26
2019-03-30T05:37:01.479Z,41.34
2019-03-30T05:39:34.588Z,39.92
2019-03-30T05:42:07.729Z,39.10
2019-03-30T05:44:39.360Z,37.69
2019-03-30T05:47:12.298Z,36.16
2019-03-30T05:49:45.685Z,34.67
2019-03-30T05:52:26.357Z,33.62
2019-03-30T05:54:53.951Z,32.61
2019-03-30T05:57:26.895Z,31.56
2019-03-30T06:00:00.033Z,30.91
2019-03-30T06:02:33.026Z,30.69
2019-03-30T06:05:06.842Z,29.98
2019-03-30T06:07:40.239Z,29.05
2019-03-30T06:10:12.732Z,30.07
2019-03-30T06:12:45.875Z,30.23
2019-03-30T06:15:18.974Z,30.27
2019-03-30T06:17:52.400Z,30.53
2019-03-30T06:20:25.552Z,30.73
2019-03-30T06:22:58.790Z,32.51
2019-03-30T06:25:31.854Z,31.99
2019-03-30T06:28:05.026Z,31.88
2019-03-30T06:30:38.134Z,31.25
2019-03-30T06:33:09.710Z,30.96
2019-03-30T06:35:42.685Z,30.52
2019-03-30T06:38:14.583Z,30.41
2019-03-30T06:40:47.695Z,30.57
2019-03-30T06:43:19.301Z,30.45
2019-03-30T06:45:53.320Z,29.94
2019-03-30T06:48:26.345Z,30.13
2019-03-30T06:50:59.312Z,30.63
2019-03-30T06:53:32.404Z,31.94
2019-03-30T06:56:05.172Z,31.43
2019-03-30T06:58:38.564Z,32.04
2019-03-30T07:01:15.468Z,31.30
2019-03-30T07:03:48.665Z,31.12
2019-03-30T07:06:23.042Z,30.91
2019-03-30T07:08:58.127Z,31.32
2019-03-30T07:11:34.121Z,31.04
2019-03-30T07:14:07.353Z,31.69
2019-03-30T07:16:42.481Z,31.05
2019-03-30T07:19:16.152Z,32.49
2019-03-30T07:21:49.232Z,33.08
2019-03-30T07:24:22.389Z,32.95
2019-03-30T07:26:55.403Z,32.06
2019-03-30T07:29:28.252Z,32.50
2019-03-30T07:32:01.322Z,31.77
2019-03-30T07:34:34.956Z,32.98
2019-03-30T07:37:08.447Z,32.62
2019-03-30T07:39:41.210Z,32.22
2019-03-30T07:42:14.287Z,31.43
2019-03-30T07:44:47.817Z,31.43
2019-03-30T07:47:20.475Z,31.82
2019-03-30T07:49:53.540Z,31.75
2019-03-30T07:52:26.728Z,31.75
2019-03-30T07:54:58.437Z,31.10
2019-03-30T07:57:32.684Z,30.70
2019-03-30T08:00:04.162Z,30.43
2019-03-30T08:02:37.704Z,31.50
2019-03-30T08:05:10.790Z,32.48
2019-03-30T08:07:44.611Z,31.06
2019-03-30T08:10:21.351Z,32.13
2019-03-30T08:12:54.567Z,32.33
2019-03-30T08:15:26.191Z,31.31
2019-03-30T08:17:59.776Z,31.05
2019-03-30T08:20:33.267Z,31.66
2019-03-30T08:23:06.585Z,31.74
2019-03-30T08:25:39.934Z,31.96
2019-03-30T08:28:11.843Z,31.70
2019-03-30T08:30:45.231Z,32.42
2019-03-30T08:33:18.558Z,32.58
2019-03-30T08:35:49.949Z,31.95
2019-03-30T08:38:22.684Z,31.34
2019-03-30T08:40:55.683Z,30.81
2019-03-30T08:43:28.734Z,30.95
2019-03-30T08:46:00.239Z,32.08
2019-03-30T08:48:33.297Z,32.49
2019-03-30T08:51:06.323Z,31.27
2019-03-30T08:53:53.757Z,29.80
2019-03-30T08:56:14.536Z,29.23
2019-03-30T08:58:46.080Z,29.66
2019-03-30T09:01:19.223Z,28.17
2019-03-30T09:03:52.456Z,28.62
2019-03-30T09:06:26.032Z,29.11
2019-03-30T09:08:59.108Z,28.74
2019-03-30T09:11:32.314Z,28.61
2019-03-30T09:14:03.992Z,29.44
2019-03-30T09:16:37.127Z,28.61
2019-03-30T09:19:08.783Z,28.74
2019-03-30T09:21:41.819Z,28.55
2019-03-30T09:24:14.866Z,27.85
2019-03-30T09:26:47.927Z,27.45
2019-03-30T09:29:20.646Z,27.98
2019-03-30T09:31:54.008Z,27.66
2019-03-30T09:34:25.725Z,27.25
2019-03-30T09:36:58.643Z,27.71
2019-03-30T09:39:32.036Z,28.51
2019-03-30T09:42:05.151Z,29.18
2019-03-30T09:44:38.873Z,28.33
2019-03-30T09:47:12.036Z,27.67
2019-03-30T09:49:43.651Z,27.40
2019-03-30T09:52:16.507Z,26.59
2019-03-30T09:54:50.026Z,27.05
2019-03-30T09:57:23.688Z,27.74
2019-03-30T09:59:56.698Z,28.11
2019-03-30T10:02:30.012Z,29.01
2019-03-30T10:05:03.455Z,29.24
2019-03-30T10:07:36.499Z,29.40
2019-03-30T10:10:10.118Z,29.93
2019-03-30T10:12:43.485Z,30.44
2019-03-30T10:15:16.770Z,30.49
2019-03-30T10:17:49.986Z,30.97
2019-03-30T10:20:21.664Z,30.04
2019-03-30T10:22:54.923Z,29.25
2019-03-30T10:25:28.118Z,27.93
2019-03-30T10:28:01.666Z,27.94
2019-03-30T10:30:34.664Z,27.60
2019-03-30T10:33:08.042Z,27.82
2019-03-30T10:35:41.224Z,27.93
2019-03-30T10:38:12.809Z,27.15
2019-03-30T10:40:45.924Z,26.53
2019-03-30T10:43:17.059Z,26.48
2019-03-30T10:45:50.127Z,26.30
2019-03-30T10:48:23.414Z,26.84
2019-03-30T10:50:54.731Z,27.13
2019-03-30T10:53:28.064Z,26.87
2019-03-30T10:56:01.109Z,26.51
2019-03-30T10:58:34.437Z,26.53
2019-03-30T11:01:07.497Z,26.32
2019-03-30T11:03:39.064Z,27.70
2019-03-30T11:06:11.785Z,28.04
2019-03-30T11:08:45.271Z,27.78
2019-03-30T11:11:18.462Z,28.12
2019-03-30T11:13:49.939Z,27.50
2019-03-30T11:16:23.281Z,27.13
2019-03-30T11:18:56.571Z,27.42
2019-03-30T11:21:28.126Z,26.63
2019-03-30T11:24:01.082Z,26.64
2019-03-30T11:26:34.251Z,25.84
2019-03-30T11:29:05.909Z,25.45
2019-03-30T11:31:37.482Z,25.79
2019-03-30T11:34:08.765Z,24.92
2019-03-30T11:36:40.187Z,25.80
2019-03-30T11:39:11.554Z,25.42
2019-03-30T11:41:42.613Z,25.82
2019-03-30T11:44:14.181Z,25.67
2019-03-30T11:46:45.805Z,24.84
2019-03-30T11:49:17.011Z,25.07
2019-03-30T11:51:48.168Z,25.84
2019-03-30T11:54:19.520Z,26.41
2019-03-30T11:56:50.938Z,26.54
2019-03-30T11:59:22.520Z,26.30
2019-03-30T12:01:53.759Z,25.84
2019-03-30T12:04:25.032Z,25.65
2019-03-30T12:06:56.700Z,25.85
2019-03-30T12:09:27.994Z,25.72
2019-03-30T12:11:59.546Z,24.97
2019-03-30T12:14:31.004Z,24.46
2019-03-30T12:17:02.334Z,24.14
2019-03-30T12:19:33.853Z,24.39
2019-03-30T12:22:05.379Z,24.49
2019-03-30T12:24:37.071Z,24.65
2019-03-30T12:27:08.451Z,24.64
2019-03-30T12:29:40.050Z,24.37
2019-03-30T12:32:11.309Z,23.59
2019-03-30T12:34:42.854Z,24.09
2019-03-30T12:37:14.201Z,23.75
2019-03-30T12:39:45.536Z,24.25
2019-03-30T12:42:16.764Z,23.40
2019-03-30T12:44:49.175Z,21.96
2019-03-30T12:47:20.589Z,20.80
2019-03-30T12:49:52.357Z,21.45
2019-03-30T12:52:26.427Z,20.79
2019-03-30T12:54:56.970Z,20.26
2019-03-30T12:57:28.528Z,19.97
2019-03-30T12:59:59.971Z,19.42
2019-03-30T13:02:31.217Z,19.12
2019-03-30T13:05:02.427Z,18.27
2019-03-30T13:07:34.336Z,17.87
2019-03-30T13:10:05.974Z,17.14
2019-03-30T13:12:37.384Z,18.34
2019-03-30T13:15:08.649Z,18.24
2019-03-30T13:17:40.225Z,18.24
2019-03-30T13:20:11.653Z,18.51
2019-03-30T13:22:43.363Z,18.77
2019-03-30T13:25:14.587Z,18.38
2019-03-30T13:27:46.166Z,18.75
2019-03-30T13:30:17.960Z,18.50
2019-03-30T13:32:53.582Z,19.03
2019-03-30T13:35:25.230Z,17.94
2019-03-30T13:37:56.639Z,18.50
2019-03-30T13:40:28.408Z,18.89
2019-03-30T13:43:00.797Z,19.03
2019-03-30T13:45:32.354Z,18.89
2019-03-30T13:48:03.641Z,19.23
2019-03-30T13:50:35.088Z,19.37
2019-03-30T13:53:06.765Z,19.13
2019-03-30T13:55:38.126Z,19.29
2019-03-30T13:58:09.594Z,19.28
2019-03-30T14:00:40.974Z,20.45
2019-03-30T14:03:12.723Z,20.57
2019-03-30T14:05:44.177Z,20.21
2019-03-30T14:08:15.932Z,20.01
2019-03-30T14:10:46.914Z,19.87
2019-03-30T14:13:18.510Z,20.63
2019-03-30T14:15:49.955Z,21.29
2019-03-30T14:18:21.336Z,21.11
2019-03-30T14:20:52.789Z,20.81
2019-03-30T14:23:24.175Z,21.49
2019-03-30T14:25:55.753Z,21.69
2019-03-30T14:28:27.070Z,21.66
2019-03-30T14:30:59.529Z,21.78
2019-03-30T14:33:31.158Z,21.85
2019-03-30T14:36:02.392Z,21.80
2019-03-30T14:38:33.542Z,21.94
2019-03-30T14:41:04.870Z,22.24
2019-03-30T14:43:36.296Z,22.35
2019-03-30T14:46:07.814Z,23.13
2019-03-30T14:48:42.368Z,23.02
2019-03-30T14:51:13.888Z,23.85
2019-03-30T14:53:45.538Z,24.25
2019-03-30T14:56:16.868Z,24.65
2019-03-30T14:58:48.169Z,25.20
2019-03-30T15:01:19.679Z,25.22
2019-03-30T15:03:51.442Z,25.70
2019-03-30T15:06:22.447Z,26.21
2019-03-30T15:08:53.632Z,27.17
2019-03-30T15:11:24.940Z,27.91
2019-03-30T15:13:56.217Z,28.42
2019-03-30T15:16:27.633Z,28.93
2019-03-30T15:18:58.816Z,29.08
2019-03-30T15:21:30.344Z,29.62
2019-03-30T15:24:02.273Z,29.90
2019-03-30T15:26:33.254Z,30.23
2019-03-30T15:29:04.817Z,30.73
2019-03-30T15:31:36.269Z,30.64
2019-03-30T15:34:10.594Z,30.97
2019-03-30T15:36:41.423Z,31.22
2019-03-30T15:39:13.055Z,31.53
2019-03-30T15:41:44.465Z,31.65
2019-03-30T15:44:16.263Z,31.67
2019-03-30T15:46:47.640Z,31.71
2019-03-30T15:49:19.078Z,31.71
2019-03-30T15:51:49.934Z,31.78
2019-03-30T15:54:20.786Z,31.95
2019-03-30T15:56:51.793Z,32.49
2019-03-30T15:59:23.334Z,32.48
2019-03-30T16:01:54.847Z,32.81
2019-03-30T16:04:27.440Z,32.94
2019-03-30T16:06:58.544Z,32.95
2019-03-30T16:09:29.920Z,33.18
2019-03-30T16:12:01.271Z,33.30
2019-03-30T16:14:32.834Z,33.16
2019-03-30T16:17:03.821Z,33.35
2019-03-30T16:19:36.152Z,33.62
2019-03-30T16:22:07.064Z,33.68
2019-03-30T16:24:38.324Z,33.91
2019-03-30T16:27:09.688Z,33.83
2019-03-30T16:29:40.915Z,34.36
2019-03-30T16:32:12.253Z,34.79
2019-03-30T16:34:44.269Z,34.65
2019-03-30T16:37:15.687Z,34.72
2019-03-30T16:39:47.479Z,34.95
2019-03-30T16:42:18.592Z,35.22
2019-03-30T16:44:49.996Z,35.19
2019-03-30T16:47:21.500Z,35.36
2019-03-30T16:49:52.780Z,35.65
2019-03-30T16:52:24.194Z,35.99
2019-03-30T16:54:55.904Z,36.03
2019-03-30T16:57:27.127Z,36.04
2019-03-30T16:59:58.205Z,36.14
2019-03-30T17:02:29.798Z,36.41
2019-03-30T17:05:00.891Z,36.59
2019-03-30T17:07:32.519Z,36.68
2019-03-30T17:10:03.787Z,36.85
2019-03-30T17:12:35.134Z,37.03
2019-03-30T17:15:06.665Z,36.76
2019-03-30T17:17:38.111Z,37.06
2019-03-30T17:20:09.193Z,36.94
2019-03-30T17:22:40.771Z,37.29
2019-03-30T17:25:11.905Z,37.17
2019-03-30T17:27:57.089Z,37.23
2019-03-30T17:30:17.015Z,37.43
2019-03-30T17:32:48.265Z,37.44
2019-03-30T17:35:19.645Z,37.61
2019-03-30T17:37:51.217Z,37.66
2019-03-30T17:40:22.162Z,37.99
2019-03-30T17:42:54.046Z,37.94
2019-03-30T17:45:25.641Z,38.24
2019-03-30T17:47:57.060Z,38.40
2019-03-30T17:50:28.767Z,38.70
2019-03-30T17:53:00.132Z,38.99
2019-03-30T17:55:34.026Z,39.16
2019-03-30T17:58:12.792Z,39.55
2019-03-30T18:00:37.397Z,39.82
2019-03-30T18:03:09.041Z,40.15
2019-03-30T18:05:40.608Z,40.33
2019-03-30T18:08:11.502Z,40.38
2019-03-30T18:10:42.834Z,40.54
2019-03-30T18:13:14.233Z,40.53
2019-03-30T18:15:45.880Z,40.56
2019-03-30T18:18:17.759Z,40.62
2019-03-30T18:20:49.503Z,40.59
2019-03-30T18:23:21.126Z,40.42
2019-03-30T18:25:52.386Z,40.08
2019-03-30T18:28:27.674Z,39.92
2019-03-30T18:30:57.161Z,39.98
2019-03-30T18:33:28.652Z,39.86
2019-03-30T18:35:59.969Z,39.82
2019-03-30T18:38:31.551Z,39.24
2019-03-30T18:41:02.437Z,39.21
2019-03-30T18:43:33.748Z,39.55
2019-03-30T18:46:05.184Z,39.45
2019-03-30T18:48:36.514Z,39.85
2019-03-30T18:51:07.801Z,39.76
2019-03-30T18:53:39.358Z,40.45
2019-03-30T18:56:10.786Z,41.07
2019-03-30T18:58:42.450Z,41.30
2019-03-30T19:01:13.746Z,41.07
2019-03-30T19:03:45.274Z,41.17
2019-03-30T19:06:16.635Z,41.22
2019-03-30T19:08:47.937Z,41.41
2019-03-30T19:11:19.507Z,41.41
2019-03-30T19:13:51.553Z,41.47
2019-03-30T19:16:22.823Z,41.64
2019-03-30T19:18:53.876Z,41.93
2019-03-30T19:21:25.497Z,42.03
2019-03-30T19:23:57.053Z,41.95
2019-03-30T19:26:28.405Z,41.43
2019-03-30T19:29:00.067Z,41.28
2019-03-30T19:31:31.836Z,41.29
2019-03-30T19:34:03.334Z,41.63
2019-03-30T19:36:34.690Z,41.89
2019-03-30T19:39:07.601Z,42.44
2019-03-30T19:41:38.880Z,42.67
2019-03-30T19:44:10.337Z,43.08
2019-03-30T19:46:41.640Z,43.24
2019-03-30T19:49:13.124Z,43.47
2019-03-30T19:51:44.436Z,43.98
2019-03-30T19:54:15.856Z,43.80
2019-03-30T19:56:47.425Z,43.97
2019-03-30T19:59:18.962Z,44.34
2019-03-30T20:01:50.094Z,44.49
2019-03-30T20:04:21.134Z,44.59
2019-03-30T20:06:52.680Z,44.68
2019-03-30T20:09:24.063Z,44.72
2019-03-30T20:11:55.495Z,44.91
2019-03-30T20:14:26.647Z,44.99
2019-03-30T20:16:58.204Z,44.99
2019-03-30T20:19:29.729Z,45.34
2019-03-30T20:22:01.229Z,45.02
2019-03-30T20:24:32.749Z,45.07
2019-03-30T20:27:04.151Z,45.07
2019-03-30T20:29:35.771Z,45.04
2019-03-30T20:32:29.425Z,45.22
2019-03-30T20:35:03.473Z,44.40
2019-03-30T20:37:34.998Z,44.08
2019-03-30T20:40:06.827Z,44.66
2019-03-30T20:42:38.126Z,45.00
2019-03-30T20:45:10.446Z,45.22
2019-03-30T20:47:41.953Z,45.34
2019-03-30T20:50:13.879Z,45.17
2019-03-30T20:52:45.504Z,45.23
2019-03-30T20:55:16.897Z,45.70
2019-03-30T20:57:48.408Z,46.10
2019-03-30T21:00:19.860Z,46.16
2019-03-30T21:02:51.187Z,46.37
2019-03-30T21:05:22.420Z,46.45
2019-03-30T21:07:53.627Z,46.80
2019-03-30T21:10:24.555Z,47.06
2019-03-30T21:12:55.893Z,46.66
2019-03-30T21:15:27.172Z,46.36
2019-03-30T21:17:58.618Z,46.85
2019-03-30T21:20:29.560Z,46.32
2019-03-30T21:23:00.944Z,47.02
2019-03-30T21:25:32.186Z,47.64
2019-03-30T21:28:03.545Z,48.03
2019-03-30T21:30:34.768Z,49.15
2019-03-30T21:33:06.260Z,49.31
2019-03-30T21:35:38.530Z,49.40
2019-03-30T21:38:09.927Z,49.76
2019-03-30T21:40:41.162Z,49.63
2019-03-30T21:43:12.686Z,50.17
2019-03-30T21:45:44.043Z,49.53
2019-03-30T21:48:15.554Z,49.32
2019-03-30T21:50:46.926Z,49.51
2019-03-30T21:53:18.684Z,50.13
2019-03-30T21:55:51.100Z,50.34
2019-03-30T21:58:22.401Z,50.46
2019-03-30T22:00:53.765Z,50.51
2019-03-30T22:03:25.257Z,51.08
2019-03-30T22:05:56.641Z,51.84
2019-03-30T22:08:28.374Z,52.08
2019-03-30T22:10:59.749Z,52.09
2019-03-30T22:13:31.161Z,52.21
2019-03-30T22:16:02.302Z,51.83
2019-03-30T22:18:33.815Z,51.99
2019-03-30T22:21:05.089Z,51.56
2019-03-30T22:23:36.432Z,51.51
2019-03-30T22:26:08.144Z,51.16
2019-03-30T22:28:39.546Z,50.76
2019-03-30T22:31:10.827Z,51.22
2019-03-30T22:33:42.413Z,51.92
2019-03-30T22:36:13.675Z,52.49
2019-03-30T22:38:45.240Z,52.88
2019-03-30T22:41:16.514Z,53.54
2019-03-30T22:43:47.879Z,53.89
2019-03-30T22:46:19.486Z,53.67
2019-03-30T22:48:50.958Z,53.74
2019-03-30T22:51:22.297Z,53.66
2019-03-30T22:53:56.106Z,53.34
2019-03-30T22:56:27.497Z,52.89
2019-03-30T22:58:58.800Z,52.97
2019-03-30T23:01:30.442Z,52.98
2019-03-30T23:04:01.186Z,53.18
2019-03-30T23:06:32.412Z,53.41
2019-03-30T23:09:04.210Z,53.71
2019-03-30T23:11:35.929Z,54.10
2019-03-30T23:14:07.370Z,54.34
2019-03-30T23:16:38.719Z,54.44
2019-03-30T23:19:10.291Z,54.74
2019-03-30T23:21:41.705Z,54.69
2019-03-30T23:24:13.234Z,54.73
2019-03-30T23:26:45.820Z,54.89
2019-03-30T23:29:17.199Z,55.03
2019-03-30T23:31:48.685Z,54.96
2019-03-30T23:34:20.660Z,54.62
2019-03-30T23:36:52.165Z,54.38
2019-03-30T23:39:23.428Z,54.11
2019-03-30T23:41:54.611Z,54.10
2019-03-30T23:44:25.811Z,54.21
2019-03-30T23:46:57.091Z,54.33
2019-03-30T23:49:28.236Z,54.13
2019-03-30T23:51:59.813Z,54.20
2019-03-30T23:54:31.076Z,54.55
2019-03-30T23:57:05.726Z,55.12
2019-03-30T23:59:37.045Z,55.64
